SKG792 CYOO-CNR4
Flight info
| Callsign | SKG792 |
|---|---|
| Flight time | 0h 47m |
| Altitude | 22000 |
| Route | CNY3 |
| Aircraft | PC12/L-SDFGRWY/S |
Departure
| Time | 2026-05-04 00:14 |
|---|---|
| Airport | Oshawa Executive Airport (CYOO) |
Arrival
| Time | 2026-05-04 01:02 |
|---|---|
| Airport | Tobermory Airport (CNR4) |
| Time | Latitude | Longitude | Altitude | Speed | Heading |
|---|---|---|---|---|---|
| 2026-05-04 00:06 | 43.92506 | -78.90158 | 462 ft | 0 kts | 16° |
| 2026-05-04 00:10 | 43.92520 | -78.90168 | 462 ft | 6 kts | 293° |
| 2026-05-04 00:10 | 43.92498 | -78.90212 | 463 ft | 6 kts | 189° |
| 2026-05-04 00:11 | 43.92468 | -78.90153 | 462 ft | 11 kts | 112° |
| 2026-05-04 00:11 | 43.92431 | -78.90022 | 461 ft | 18 kts | 111° |
| 2026-05-04 00:11 | 43.92418 | -78.89833 | 459 ft | 23 kts | 73° |
| 2026-05-04 00:11 | 43.92472 | -78.89616 | 459 ft | 23 kts | 70° |
| 2026-05-04 00:12 | 43.92524 | -78.89409 | 462 ft | 21 kts | 72° |
| 2026-05-04 00:12 | 43.92554 | -78.89282 | 464 ft | 4 kts | 73° |
| 2026-05-04 00:12 | 43.92554 | -78.89281 | 464 ft | 0 kts | 74° |
| 2026-05-04 00:13 | 43.92557 | -78.89266 | 464 ft | 7 kts | 74° |
| 2026-05-04 00:13 | 43.92556 | -78.89182 | 465 ft | 7 kts | 164° |
| 2026-05-04 00:13 | 43.92464 | -78.89269 | 462 ft | 36 kts | 215° |
| 2026-05-04 00:13 | 43.92137 | -78.89589 | 457 ft | 77 kts | 214° |
| 2026-05-04 00:14 | 43.91632 | -78.90052 | 601 ft | 91 kts | 216° |
| 2026-05-04 00:14 | 43.91093 | -78.90551 | 844 ft | 94 kts | 218° |
| 2026-05-04 00:14 | 43.90513 | -78.91089 | 1043 ft | 108 kts | 215° |
| 2026-05-04 00:14 | 43.89867 | -78.91739 | 1375 ft | 118 kts | 232° |
| 2026-05-04 00:15 | 43.89736 | -78.92847 | 1884 ft | 126 kts | 279° |
| 2026-05-04 00:15 | 43.90203 | -78.93906 | 2426 ft | 132 kts | 300° |
| 2026-05-04 00:15 | 43.90764 | -78.94877 | 2942 ft | 126 kts | 299° |
| 2026-05-04 00:15 | 43.91279 | -78.95833 | 3479 ft | 121 kts | 296° |
| 2026-05-04 00:16 | 43.91781 | -78.96800 | 3909 ft | 125 kts | 296° |
| 2026-05-04 00:16 | 43.92285 | -78.97772 | 4394 ft | 124 kts | 297° |
| 2026-05-04 00:16 | 43.92782 | -78.98739 | 4890 ft | 123 kts | 297° |
| 2026-05-04 00:16 | 43.93277 | -78.99703 | 5340 ft | 123 kts | 297° |
| 2026-05-04 00:17 | 43.93772 | -79.00669 | 5785 ft | 123 kts | 297° |
| 2026-05-04 00:17 | 43.94266 | -79.01634 | 6232 ft | 123 kts | 298° |
| 2026-05-04 00:17 | 43.94761 | -79.02601 | 6644 ft | 123 kts | 298° |
| 2026-05-04 00:17 | 43.95266 | -79.03588 | 7093 ft | 124 kts | 298° |
| 2026-05-04 00:18 | 43.95768 | -79.04569 | 7508 ft | 125 kts | 298° |
| 2026-05-04 00:18 | 43.96170 | -79.05620 | 7922 ft | 123 kts | 284° |
| 2026-05-04 00:18 | 43.96249 | -79.06798 | 8307 ft | 125 kts | 271° |
| 2026-05-04 00:18 | 43.96235 | -79.08009 | 8701 ft | 126 kts | 272° |
| 2026-05-04 00:19 | 43.96227 | -79.09232 | 9090 ft | 127 kts | 272° |
| 2026-05-04 00:19 | 43.96225 | -79.10466 | 9488 ft | 128 kts | 273° |
| 2026-05-04 00:19 | 43.96226 | -79.11710 | 9875 ft | 130 kts | 273° |
| 2026-05-04 00:19 | 43.96399 | -79.12917 | 10205 ft | 132 kts | 300° |
| 2026-05-04 00:20 | 43.97001 | -79.13917 | 10563 ft | 137 kts | 304° |
| 2026-05-04 00:20 | 43.97608 | -79.14929 | 10976 ft | 137 kts | 303° |
| 2026-05-04 00:20 | 43.98191 | -79.15988 | 11380 ft | 139 kts | 302° |
| 2026-05-04 00:20 | 43.98766 | -79.17068 | 11791 ft | 140 kts | 301° |
| 2026-05-04 00:21 | 43.99342 | -79.18164 | 12205 ft | 141 kts | 301° |
| 2026-05-04 00:21 | 43.99922 | -79.19269 | 12616 ft | 142 kts | 302° |
| 2026-05-04 00:21 | 44.00508 | -79.20389 | 13026 ft | 144 kts | 302° |
| 2026-05-04 00:21 | 44.01100 | -79.21522 | 13432 ft | 146 kts | 302° |
| 2026-05-04 00:22 | 44.01700 | -79.22669 | 13814 ft | 148 kts | 302° |
| 2026-05-04 00:22 | 44.02305 | -79.23826 | 14176 ft | 149 kts | 302° |
| 2026-05-04 00:22 | 44.02914 | -79.24992 | 14543 ft | 150 kts | 302° |
| 2026-05-04 00:22 | 44.03528 | -79.26167 | 14919 ft | 151 kts | 302° |
| 2026-05-04 00:23 | 44.04145 | -79.27350 | 15283 ft | 152 kts | 302° |
| 2026-05-04 00:23 | 44.04767 | -79.28542 | 15648 ft | 153 kts | 302° |
| 2026-05-04 00:23 | 44.05394 | -79.29743 | 16015 ft | 154 kts | 302° |
| 2026-05-04 00:23 | 44.06024 | -79.30951 | 16380 ft | 155 kts | 302° |
| 2026-05-04 00:24 | 44.06659 | -79.32170 | 16748 ft | 156 kts | 302° |
| 2026-05-04 00:24 | 44.07090 | -79.32998 | 16995 ft | 157 kts | 302° |
| 2026-05-04 00:24 | 44.07942 | -79.34634 | 17477 ft | 158 kts | 302° |
| 2026-05-04 00:24 | 44.08591 | -79.35880 | 17845 ft | 160 kts | 302° |
| 2026-05-04 00:25 | 44.09252 | -79.37151 | 18198 ft | 161 kts | 302° |
| 2026-05-04 00:25 | 44.09907 | -79.38411 | 18482 ft | 161 kts | 302° |
| 2026-05-04 00:25 | 44.10686 | -79.39541 | 18716 ft | 166 kts | 318° |
| 2026-05-04 00:25 | 44.11390 | -79.40744 | 18925 ft | 161 kts | 295° |
| 2026-05-04 00:26 | 44.11939 | -79.42111 | 19164 ft | 162 kts | 298° |
| 2026-05-04 00:26 | 44.12541 | -79.43448 | 19409 ft | 164 kts | 300° |
| 2026-05-04 00:26 | 44.13188 | -79.44755 | 19672 ft | 164 kts | 301° |
| 2026-05-04 00:26 | 44.13848 | -79.46057 | 19937 ft | 165 kts | 302° |
| 2026-05-04 00:27 | 44.14511 | -79.47364 | 20210 ft | 165 kts | 302° |
| 2026-05-04 00:27 | 44.15175 | -79.48676 | 20470 ft | 166 kts | 302° |
| 2026-05-04 00:27 | 44.15841 | -79.49991 | 20721 ft | 166 kts | 302° |
| 2026-05-04 00:27 | 44.16508 | -79.51312 | 20966 ft | 167 kts | 302° |
| 2026-05-04 00:28 | 44.17177 | -79.52636 | 21220 ft | 167 kts | 302° |
| 2026-05-04 00:28 | 44.17853 | -79.53961 | 21461 ft | 168 kts | 301° |
| 2026-05-04 00:28 | 44.18519 | -79.55301 | 21713 ft | 168 kts | 301° |
| 2026-05-04 00:28 | 44.19195 | -79.56648 | 21842 ft | 174 kts | 302° |
| 2026-05-04 00:29 | 44.19910 | -79.58069 | 21847 ft | 184 kts | 302° |
| 2026-05-04 00:29 | 44.20663 | -79.59561 | 21853 ft | 192 kts | 302° |
| 2026-05-04 00:29 | 44.21444 | -79.61109 | 21855 ft | 199 kts | 302° |
| 2026-05-04 00:29 | 44.22250 | -79.62708 | 21852 ft | 204 kts | 302° |
| 2026-05-04 00:30 | 44.23072 | -79.64339 | 21852 ft | 207 kts | 302° |
| 2026-05-04 00:30 | 44.23906 | -79.65996 | 21851 ft | 210 kts | 302° |
| 2026-05-04 00:30 | 44.24748 | -79.67671 | 21853 ft | 212 kts | 302° |
| 2026-05-04 00:30 | 44.25599 | -79.69365 | 21851 ft | 214 kts | 302° |
| 2026-05-04 00:31 | 44.26456 | -79.71070 | 21852 ft | 215 kts | 302° |
| 2026-05-04 00:31 | 44.27315 | -79.72782 | 21851 ft | 216 kts | 302° |
| 2026-05-04 00:31 | 44.28179 | -79.74504 | 21851 ft | 217 kts | 302° |
| 2026-05-04 00:31 | 44.29044 | -79.76230 | 21851 ft | 217 kts | 302° |
| 2026-05-04 00:32 | 44.29911 | -79.77962 | 21852 ft | 218 kts | 302° |
| 2026-05-04 00:32 | 44.30780 | -79.79698 | 21852 ft | 218 kts | 302° |
| 2026-05-04 00:32 | 44.31651 | -79.81438 | 21847 ft | 219 kts | 302° |
| 2026-05-04 00:32 | 44.32521 | -79.83178 | 21847 ft | 219 kts | 302° |
| 2026-05-04 00:33 | 44.33403 | -79.84944 | 21847 ft | 219 kts | 302° |
| 2026-05-04 00:33 | 44.35144 | -79.88429 | 21842 ft | 219 kts | 302° |
| 2026-05-04 00:33 | 44.36012 | -79.90171 | 21842 ft | 219 kts | 302° |
| 2026-05-04 00:34 | 44.36882 | -79.91915 | 21841 ft | 218 kts | 302° |
| 2026-05-04 00:34 | 44.37749 | -79.93654 | 21841 ft | 218 kts | 302° |
| 2026-05-04 00:34 | 44.38616 | -79.95396 | 21841 ft | 218 kts | 302° |
| 2026-05-04 00:34 | 44.39482 | -79.97138 | 21841 ft | 218 kts | 302° |
| 2026-05-04 00:35 | 44.40348 | -79.98877 | 21840 ft | 218 kts | 302° |
| 2026-05-04 00:35 | 44.41213 | -80.00618 | 21840 ft | 218 kts | 302° |
| 2026-05-04 00:35 | 44.41785 | -80.01770 | 21840 ft | 218 kts | 302° |
| 2026-05-04 00:35 | 44.42651 | -80.03515 | 21835 ft | 218 kts | 302° |
| 2026-05-04 00:36 | 44.43517 | -80.05261 | 21837 ft | 219 kts | 302° |
| 2026-05-04 00:36 | 44.44386 | -80.07013 | 21837 ft | 219 kts | 302° |
| 2026-05-04 00:36 | 44.45256 | -80.08767 | 21837 ft | 219 kts | 302° |
| 2026-05-04 00:36 | 44.46126 | -80.10524 | 21837 ft | 220 kts | 302° |
| 2026-05-04 00:37 | 44.46997 | -80.12283 | 21834 ft | 220 kts | 302° |
| 2026-05-04 00:37 | 44.47865 | -80.14039 | 21834 ft | 220 kts | 302° |
| 2026-05-04 00:37 | 44.48735 | -80.15799 | 21834 ft | 220 kts | 302° |
| 2026-05-04 00:37 | 44.49616 | -80.17581 | 21830 ft | 219 kts | 302° |
| 2026-05-04 00:38 | 44.50483 | -80.19338 | 21830 ft | 219 kts | 302° |
| 2026-05-04 00:38 | 44.51352 | -80.21097 | 21830 ft | 219 kts | 302° |
| 2026-05-04 00:38 | 44.52218 | -80.22853 | 21830 ft | 219 kts | 302° |
| 2026-05-04 00:38 | 44.53084 | -80.24612 | 21830 ft | 219 kts | 302° |
| 2026-05-04 00:39 | 44.53949 | -80.26368 | 21831 ft | 219 kts | 302° |
| 2026-05-04 00:39 | 44.54814 | -80.28125 | 21831 ft | 219 kts | 302° |
| 2026-05-04 00:39 | 44.55678 | -80.29881 | 21831 ft | 219 kts | 302° |
| 2026-05-04 00:39 | 44.56542 | -80.31637 | 21826 ft | 219 kts | 302° |
| 2026-05-04 00:40 | 44.57405 | -80.33395 | 21825 ft | 219 kts | 302° |
| 2026-05-04 00:40 | 44.58269 | -80.35154 | 21825 ft | 219 kts | 302° |
| 2026-05-04 00:40 | 44.59135 | -80.36917 | 21829 ft | 220 kts | 302° |
| 2026-05-04 00:40 | 44.60000 | -80.38681 | 21827 ft | 220 kts | 302° |
| 2026-05-04 00:41 | 44.60866 | -80.40448 | 21824 ft | 220 kts | 302° |
| 2026-05-04 00:41 | 44.61731 | -80.42214 | 21824 ft | 220 kts | 302° |
| 2026-05-04 00:41 | 44.62597 | -80.43982 | 21824 ft | 220 kts | 302° |
| 2026-05-04 00:41 | 44.63461 | -80.45748 | 21819 ft | 219 kts | 302° |
| 2026-05-04 00:42 | 44.64324 | -80.47513 | 21819 ft | 219 kts | 302° |
| 2026-05-04 00:42 | 44.65187 | -80.49278 | 21819 ft | 219 kts | 302° |
| 2026-05-04 00:42 | 44.66046 | -80.51036 | 21601 ft | 220 kts | 302° |
| 2026-05-04 00:42 | 44.66927 | -80.52843 | 21223 ft | 228 kts | 302° |
| 2026-05-04 00:43 | 44.67834 | -80.54702 | 20861 ft | 233 kts | 302° |
| 2026-05-04 00:43 | 44.68754 | -80.56586 | 20496 ft | 235 kts | 302° |
| 2026-05-04 00:43 | 44.69683 | -80.58492 | 20131 ft | 237 kts | 302° |
| 2026-05-04 00:43 | 44.70616 | -80.60408 | 19779 ft | 238 kts | 301° |
| 2026-05-04 00:44 | 44.71549 | -80.62329 | 19426 ft | 238 kts | 301° |
| 2026-05-04 00:44 | 44.72485 | -80.64254 | 19075 ft | 238 kts | 301° |
| 2026-05-04 00:44 | 44.73433 | -80.66204 | 18725 ft | 238 kts | 301° |
| 2026-05-04 00:44 | 44.74356 | -80.68104 | 18389 ft | 238 kts | 301° |
| 2026-05-04 00:45 | 44.75303 | -80.70056 | 18036 ft | 238 kts | 301° |
| 2026-05-04 00:45 | 44.76236 | -80.71980 | 17654 ft | 238 kts | 301° |
| 2026-05-04 00:45 | 44.77167 | -80.73901 | 17270 ft | 237 kts | 301° |
| 2026-05-04 00:45 | 44.78095 | -80.75819 | 16888 ft | 237 kts | 301° |
| 2026-05-04 00:46 | 44.79024 | -80.77738 | 16515 ft | 237 kts | 301° |
| 2026-05-04 00:46 | 44.79953 | -80.79661 | 16146 ft | 238 kts | 301° |
| 2026-05-04 00:46 | 44.80883 | -80.81585 | 15777 ft | 238 kts | 301° |
| 2026-05-04 00:46 | 44.81813 | -80.83510 | 15421 ft | 238 kts | 301° |
| 2026-05-04 00:47 | 44.82744 | -80.85439 | 15075 ft | 238 kts | 301° |
| 2026-05-04 00:47 | 44.83677 | -80.87372 | 14739 ft | 238 kts | 301° |
| 2026-05-04 00:47 | 44.84601 | -80.89288 | 14468 ft | 236 kts | 301° |
| 2026-05-04 00:47 | 44.85520 | -80.91199 | 14192 ft | 235 kts | 301° |
| 2026-05-04 00:48 | 44.86436 | -80.93099 | 13926 ft | 234 kts | 301° |
| 2026-05-04 00:48 | 44.87349 | -80.94996 | 13656 ft | 233 kts | 301° |
| 2026-05-04 00:48 | 44.88256 | -80.96884 | 13389 ft | 232 kts | 301° |
| 2026-05-04 00:48 | 44.89158 | -80.98762 | 13104 ft | 231 kts | 301° |
| 2026-05-04 00:49 | 44.90060 | -81.00640 | 12840 ft | 231 kts | 301° |
| 2026-05-04 00:49 | 44.90957 | -81.02510 | 12580 ft | 230 kts | 301° |
| 2026-05-04 00:49 | 44.91863 | -81.04401 | 12309 ft | 229 kts | 301° |
| 2026-05-04 00:49 | 44.92756 | -81.06266 | 12045 ft | 229 kts | 301° |
| 2026-05-04 00:50 | 44.93647 | -81.08125 | 11786 ft | 229 kts | 301° |
| 2026-05-04 00:50 | 44.94538 | -81.09986 | 11527 ft | 228 kts | 301° |
| 2026-05-04 00:50 | 44.95425 | -81.11842 | 11265 ft | 228 kts | 301° |
| 2026-05-04 00:50 | 44.96309 | -81.13692 | 11049 ft | 226 kts | 301° |
| 2026-05-04 00:51 | 44.97186 | -81.15528 | 10861 ft | 224 kts | 301° |
| 2026-05-04 00:51 | 44.98055 | -81.17350 | 10686 ft | 223 kts | 301° |
| 2026-05-04 00:51 | 44.98925 | -81.19175 | 10451 ft | 225 kts | 301° |
| 2026-05-04 00:51 | 44.99802 | -81.21016 | 10203 ft | 227 kts | 301° |
| 2026-05-04 00:52 | 45.00689 | -81.22877 | 9954 ft | 229 kts | 301° |
| 2026-05-04 00:52 | 45.01580 | -81.24748 | 9708 ft | 230 kts | 301° |
| 2026-05-04 00:52 | 45.02474 | -81.26627 | 9443 ft | 230 kts | 301° |
| 2026-05-04 00:52 | 45.03369 | -81.28509 | 9178 ft | 230 kts | 301° |
| 2026-05-04 00:53 | 45.04261 | -81.30386 | 8904 ft | 230 kts | 301° |
| 2026-05-04 00:53 | 45.05152 | -81.32263 | 8635 ft | 229 kts | 300° |
| 2026-05-04 00:53 | 45.06040 | -81.34134 | 8392 ft | 229 kts | 300° |
| 2026-05-04 00:53 | 45.06926 | -81.36004 | 8134 ft | 228 kts | 300° |
| 2026-05-04 00:54 | 45.07807 | -81.37861 | 7877 ft | 227 kts | 300° |
| 2026-05-04 00:54 | 45.08688 | -81.39723 | 7615 ft | 228 kts | 300° |
| 2026-05-04 00:54 | 45.09567 | -81.41580 | 7361 ft | 226 kts | 300° |
| 2026-05-04 00:54 | 45.10425 | -81.43430 | 7107 ft | 222 kts | 296° |
| 2026-05-04 00:55 | 45.11113 | -81.45366 | 6858 ft | 219 kts | 291° |
| 2026-05-04 00:55 | 45.11762 | -81.47307 | 6608 ft | 218 kts | 294° |
| 2026-05-04 00:55 | 45.12490 | -81.49198 | 6362 ft | 218 kts | 295° |
| 2026-05-04 00:55 | 45.13235 | -81.51066 | 6118 ft | 218 kts | 296° |
| 2026-05-04 00:56 | 45.13984 | -81.52935 | 5852 ft | 218 kts | 296° |
| 2026-05-04 00:56 | 45.14728 | -81.54804 | 5594 ft | 218 kts | 296° |
| 2026-05-04 00:56 | 45.15481 | -81.56698 | 5332 ft | 218 kts | 296° |
| 2026-05-04 00:56 | 45.16226 | -81.58561 | 5074 ft | 217 kts | 296° |
| 2026-05-04 00:57 | 45.16972 | -81.60416 | 4824 ft | 217 kts | 296° |
| 2026-05-04 00:57 | 45.17717 | -81.62265 | 4573 ft | 216 kts | 296° |
| 2026-05-04 00:57 | 45.18461 | -81.64112 | 4314 ft | 215 kts | 296° |
| 2026-05-04 00:57 | 45.19207 | -81.65951 | 4055 ft | 215 kts | 296° |
| 2026-05-04 00:58 | 45.19954 | -81.67763 | 3798 ft | 212 kts | 295° |
| 2026-05-04 00:58 | 45.20705 | -81.69548 | 3539 ft | 210 kts | 296° |
| 2026-05-04 00:58 | 45.21449 | -81.71276 | 3283 ft | 201 kts | 296° |
| 2026-05-04 00:58 | 45.22174 | -81.72926 | 3025 ft | 190 kts | 296° |
| 2026-05-04 00:59 | 45.22845 | -81.74391 | 2959 ft | 163 kts | 297° |
| 2026-05-04 00:59 | 45.23766 | -81.75229 | 2883 ft | 165 kts | 339° |
| 2026-05-04 00:59 | 45.24909 | -81.74870 | 2757 ft | 177 kts | 26° |
| 2026-05-04 00:59 | 45.25452 | -81.73429 | 2600 ft | 170 kts | 105° |
| 2026-05-04 01:00 | 45.24973 | -81.71989 | 2407 ft | 158 kts | 129° |
| 2026-05-04 01:00 | 45.24452 | -81.70640 | 2229 ft | 155 kts | 130° |
| 2026-05-04 01:00 | 45.23947 | -81.69302 | 2023 ft | 149 kts | 130° |
| 2026-05-04 01:00 | 45.23537 | -81.68039 | 1795 ft | 135 kts | 125° |
| 2026-05-04 01:01 | 45.23195 | -81.66808 | 1464 ft | 132 kts | 120° |
| 2026-05-04 01:01 | 45.22891 | -81.65698 | 1229 ft | 113 kts | 119° |
| 2026-05-04 01:01 | 45.22636 | -81.64693 | 975 ft | 102 kts | 115° |
| 2026-05-04 01:01 | 45.22408 | -81.63788 | 758 ft | 91 kts | 114° |
| 2026-05-04 01:02 | 45.22218 | -81.63045 | 688 ft | 47 kts | 108° |
| 2026-05-04 01:02 | 45.22198 | -81.62933 | 684 ft | 5 kts | 320° |
| 2026-05-04 01:02 | 45.22227 | -81.63052 | 690 ft | 20 kts | 287° |
| 2026-05-04 01:02 | 45.22283 | -81.63255 | 685 ft | 24 kts | 275° |
| 2026-05-04 01:03 | 45.22384 | -81.63412 | 689 ft | 24 kts | 338° |
| 2026-05-04 01:03 | 45.22506 | -81.63482 | 689 ft | 6 kts | 340° |
| 2026-05-04 01:03 | 45.22508 | -81.63483 | 689 ft | 0 kts | 339° |